Time;durP1;ratioP1;P1;durP2;ratioP2;P2;SDS_P1;SDS_P2;PMS_P1;PMS_P2;Temp;Humidity;BMP_temperature;BMP_pressure;BME280_temperature;BME280_humidity;BME280_pressure;Samples;Min_cycle;Max_cycle;Signal;HPM_P1;HPM_P2
2023/04/24 00:02:15;;;;;;;19.77;12.00;;;;;;;;;;8355721;28;20540;-95
2023/04/24 00:06:18;;;;;;;20.23;12.43;;;;;;;;;;8355112;28;20053;-94
2023/04/24 00:10:21;;;;;;;21.70;12.43;;;;;;;;;;8351440;28;20143;-94
2023/04/24 00:14:25;;;;;;;23.15;14.48;;;;;;;;;;8354903;28;20060;-95
2023/04/24 00:18:29;;;;;;;26.08;15.98;;;;;;;;;;8354747;28;20408;-95
2023/04/24 00:22:33;;;;;;;22.85;13.93;;;;;;;;;;8355918;28;20110;-95
2023/04/24 00:26:36;;;;;;;22.35;13.55;;;;;;;;;;8370009;28;20052;-94
2023/04/24 00:30:39;;;;;;;27.83;13.13;;;;;;;;;;8374849;28;20072;-96
2023/04/24 00:34:44;;;;;;;22.25;12.45;;;;;;;;;;8361832;28;20073;-95
2023/04/24 00:38:47;;;;;;;17.17;11.52;;;;;;;;;;8341086;28;20065;-94
2023/04/24 00:42:50;;;;;;;18.90;11.13;;;;;;;;;;8355572;28;20049;-95
2023/04/24 00:46:55;;;;;;;18.05;11.45;;;;;;;;;;8374754;28;20060;-95
2023/04/24 00:51:00;;;;;;;18.30;11.77;;;;;;;;;;8360212;28;20483;-93
2023/04/24 00:55:03;;;;;;;20.30;11.18;;;;;;;;;;8373742;28;20569;-96
2023/04/24 00:59:06;;;;;;;19.15;11.13;;;;;;;;;;8374263;28;20057;-96
2023/04/24 01:03:10;;;;;;;18.60;11.20;;;;;;;;;;8373892;28;20089;-94
2023/04/24 01:07:18;;;;;;;18.75;11.48;;;;;;;;;;8360866;28;20049;-95
2023/04/24 01:11:22;;;;;;;17.73;10.50;;;;;;;;;;8373943;28;20102;-95
2023/04/24 01:15:26;;;;;;;20.13;11.10;;;;;;;;;;8372156;28;20056;-95
2023/04/24 01:19:29;;;;;;;16.73;11.00;;;;;;;;;;8373123;28;20049;-94
2023/04/24 01:23:33;;;;;;;20.83;11.35;;;;;;;;;;8372391;28;20102;-95
2023/04/24 01:27:36;;;;;;;19.83;10.70;;;;;;;;;;8371927;28;20118;-94
2023/04/24 01:31:40;;;;;;;17.50;10.32;;;;;;;;;;8371426;28;20075;-95
2023/04/24 01:35:43;;;;;;;19.98;10.57;;;;;;;;;;8352354;28;20080;-95
2023/04/24 01:39:48;;;;;;;20.27;11.48;;;;;;;;;;8369501;28;20134;-94
2023/04/24 01:43:51;;;;;;;16.10;9.90;;;;;;;;;;8370765;28;20053;-95
2023/04/24 01:47:54;;;;;;;20.17;10.05;;;;;;;;;;8372703;28;20055;-95
2023/04/24 01:51:57;;;;;;;19.13;9.57;;;;;;;;;;8354128;28;20416;-94
2023/04/24 01:56:02;;;;;;;17.90;10.90;;;;;;;;;;8357726;28;20138;-95
2023/04/24 02:00:06;;;;;;;18.38;10.73;;;;;;;;;;8370423;28;20071;-95
2023/04/24 02:04:09;;;;;;;19.00;10.18;;;;;;;;;;8369708;28;20053;-95
2023/04/24 02:08:12;;;;;;;14.13;9.73;;;;;;;;;;8356285;28;20056;-95
2023/04/24 02:12:18;;;;;;;16.02;9.30;;;;;;;;;;8369419;28;20108;-95
2023/04/24 02:16:21;;;;;;;22.63;11.55;;;;;;;;;;8369259;28;20105;-95
2023/04/24 02:20:24;;;;;;;20.10;11.38;;;;;;;;;;8356047;28;20053;-94
2023/04/24 02:24:27;;;;;;;18.33;10.95;;;;;;;;;;8368929;28;20056;-93
2023/04/24 02:28:31;;;;;;;17.85;10.82;;;;;;;;;;8366359;28;20144;-94
2023/04/24 02:32:35;;;;;;;20.75;12.35;;;;;;;;;;8359660;28;20053;-95
2023/04/24 02:36:38;;;;;;;17.92;11.07;;;;;;;;;;8370379;28;20057;-94
2023/04/24 02:40:41;;;;;;;20.83;11.25;;;;;;;;;;8371443;28;20540;-96
2023/04/24 02:44:46;;;;;;;22.02;12.45;;;;;;;;;;8360238;28;20049;-94
2023/04/24 02:48:49;;;;;;;24.00;14.35;;;;;;;;;;8368468;28;20056;-94
2023/04/24 02:52:52;;;;;;;29.75;15.98;;;;;;;;;;8351739;28;20057;-95
2023/04/24 02:56:55;;;;;;;25.85;15.18;;;;;;;;;;8359689;28;20134;-95
2023/04/24 03:00:59;;;;;;;20.67;12.55;;;;;;;;;;8358824;28;20049;-95
2023/04/24 03:05:04;;;;;;;18.98;10.80;;;;;;;;;;8370271;28;20071;-94
2023/04/24 03:09:07;;;;;;;20.30;11.40;;;;;;;;;;8370721;28;20075;-93
2023/04/24 03:13:10;;;;;;;19.77;11.40;;;;;;;;;;8371101;28;20052;-94
2023/04/24 03:17:15;;;;;;;18.00;10.65;;;;;;;;;;8371508;28;20049;-94
2023/04/24 03:21:18;;;;;;;21.98;11.55;;;;;;;;;;8357453;28;20077;-94
2023/04/24 03:25:21;;;;;;;16.05;10.00;;;;;;;;;;8364069;28;20076;-93
2023/04/24 03:29:24;;;;;;;16.75;11.23;;;;;;;;;;8367087;28;20523;-94
2023/04/24 03:33:28;;;;;;;18.35;10.88;;;;;;;;;;8340816;28;20079;-93
2023/04/24 03:37:31;;;;;;;17.77;11.30;;;;;;;;;;8367615;28;20053;-93
2023/04/24 03:41:34;;;;;;;17.98;11.20;;;;;;;;;;8368359;28;20416;-93
2023/04/24 03:45:37;;;;;;;27.80;15.35;;;;;;;;;;8370585;28;20081;-94
2023/04/24 03:49:42;;;;;;;30.17;15.32;;;;;;;;;;8355626;28;20052;-94
2023/04/24 03:53:45;;;;;;;36.78;16.00;;;;;;;;;;8364206;28;20433;-95
2023/04/24 03:57:48;;;;;;;50.63;25.40;;;;;;;;;;8369696;28;20197;-95
2023/04/24 04:01:54;;;;;;;36.45;18.00;;;;;;;;;;8365788;28;20065;-94
2023/04/24 04:06:00;;;;;;;18.25;10.68;;;;;;;;;;8369796;28;20114;-95
2023/04/24 04:10:03;;;;;;;16.30;10.40;;;;;;;;;;8383668;28;20068;-94
2023/04/24 04:14:07;;;;;;;19.98;10.13;;;;;;;;;;8389007;28;20060;-95
2023/04/24 04:18:10;;;;;;;18.10;10.00;;;;;;;;;;8373660;28;20049;-94
2023/04/24 04:22:16;;;;;;;19.38;9.75;;;;;;;;;;8372486;28;20057;-93
2023/04/24 04:26:21;;;;;;;19.27;10.30;;;;;;;;;;8375896;28;20072;-94
2023/04/24 04:30:24;;;;;;;15.35;10.73;;;;;;;;;;8353393;28;20052;-94
2023/04/24 04:34:55;;;;;;;21.60;14.32;;;;;;;;;;8376578;28;20065;-95
2023/04/24 04:39:02;;;;;;;;;;;;;;;;;;8353903;28;20129;-95
2023/04/24 04:43:06;;;;;;;18.88;11.40;;;;;;;;;;8365860;28;19959;-93
2023/04/24 04:47:16;;;;;;;17.67;11.95;;;;;;;;;;8368373;28;20053;-95
2023/04/24 04:51:20;;;;;;;23.90;14.15;;;;;;;;;;8372557;28;20049;-95
2023/04/24 04:55:25;;;;;;;16.63;10.52;;;;;;;;;;8365642;28;20078;-96
2023/04/24 04:59:33;;;;;;;15.85;8.98;;;;;;;;;;8390745;28;20049;-95
2023/04/24 05:03:39;;;;;;;15.77;9.82;;;;;;;;;;8363490;28;20052;-95
2023/04/24 05:07:48;;;;;;;14.20;9.38;;;;;;;;;;8371757;28;20053;-95
2023/04/24 05:11:58;;;;;;;14.70;9.73;;;;;;;;;;8371337;28;20120;-95
2023/04/24 05:16:11;;;;;;;16.05;12.07;;;;;;;;;;8383586;28;20036;-96
2023/04/24 05:20:15;;;;;;;11.50;8.02;;;;;;;;;;8367981;28;20144;-94
2023/04/24 05:24:18;;;;;;;13.05;8.90;;;;;;;;;;8382866;28;20132;-96
2023/04/24 05:28:22;;;;;;;22.05;16.10;;;;;;;;;;8379958;28;20055;-95
2023/04/24 05:32:26;;;;;;;21.08;15.15;;;;;;;;;;8367960;28;20467;-95
2023/04/24 05:36:36;;;;;;;13.65;9.95;;;;;;;;;;8369614;28;20063;-93
2023/04/24 05:40:40;;;;;;;23.75;20.55;;;;;;;;;;8367500;28;20038;-95
2023/04/24 05:44:44;;;;;;;14.20;10.45;;;;;;;;;;8368307;28;20475;-94
2023/04/24 05:48:47;;;;;;;14.02;9.35;;;;;;;;;;8368779;28;20515;-95
2023/04/24 05:52:50;;;;;;;12.60;7.63;;;;;;;;;;8381944;28;20053;-96
2023/04/24 05:56:55;;;;;;;21.13;16.70;;;;;;;;;;8380619;28;20048;-96
2023/04/24 06:01:02;;;;;;;11.88;7.85;;;;;;;;;;8354105;28;20048;-94
2023/04/24 06:05:05;;;;;;;10.20;6.95;;;;;;;;;;8378384;28;20057;-96
2023/04/24 06:09:08;;;;;;;19.52;13.93;;;;;;;;;;8386064;28;20055;-95
2023/04/24 06:13:13;;;;;;;10.10;6.75;;;;;;;;;;8387530;28;20061;-93
2023/04/24 06:17:29;;;;;;;13.80;9.57;;;;;;;;;;8391854;28;20056;-94
2023/04/24 06:21:33;;;;;;;9.88;6.57;;;;;;;;;;8361393;28;20149;-93
2023/04/24 06:25:40;;;;;;;9.57;6.38;;;;;;;;;;8344384;28;20065;-92
2023/04/24 06:29:44;;;;;;;9.48;5.28;;;;;;;;;;8375586;28;20087;-94
2023/04/24 06:33:49;;;;;;;13.48;7.57;;;;;;;;;;8366077;28;20041;-95
2023/04/24 06:38:02;;;;;;;17.35;15.73;;;;;;;;;;8374537;28;20053;-95
2023/04/24 06:42:12;;;;;;;13.05;8.32;;;;;;;;;;8377532;28;20053;-95
2023/04/24 06:46:15;;;;;;;11.43;6.68;;;;;;;;;;8374448;28;20049;-96
2023/04/24 06:50:19;;;;;;;12.73;6.05;;;;;;;;;;8377454;28;20501;-96
2023/04/24 06:54:22;;;;;;;11.35;7.07;;;;;;;;;;8374604;28;20069;-95
2023/04/24 06:58:28;;;;;;;11.60;4.90;;;;;;;;;;8358437;28;20057;-96
2023/04/24 07:02:45;;;;;;;8.35;4.90;;;;;;;;;;8386066;28;20061;-96
2023/04/24 07:06:51;;;;;;;11.80;5.13;;;;;;;;;;8366022;28;20060;-93
2023/04/24 07:10:55;;;;;;;9.15;6.82;;;;;;;;;;8366854;28;20045;-93
2023/04/24 07:14:59;;;;;;;7.10;4.45;;;;;;;;;;8353613;28;20088;-93
2023/04/24 07:19:01;;;;;;;6.10;4.10;;;;;;;;;;8359826;28;20046;-92
2023/04/24 07:23:06;;;;;;;8.23;4.55;;;;;;;;;;8360848;28;20107;-94
2023/04/24 07:27:09;;;;;;;7.90;3.80;;;;;;;;;;8362879;28;20812;-92
2023/04/24 07:31:12;;;;;;;7.47;4.35;;;;;;;;;;8348412;28;20061;-95
2023/04/24 07:35:15;;;;;;;6.55;4.00;;;;;;;;;;8347941;28;20445;-92
2023/04/24 07:39:20;;;;;;;10.35;4.65;;;;;;;;;;8341926;28;20053;-94
2023/04/24 07:43:23;;;;;;;7.47;4.07;;;;;;;;;;8363996;28;20489;-94
2023/04/24 07:47:26;;;;;;;5.40;3.63;;;;;;;;;;8347929;28;20064;-93
2023/04/24 07:51:30;;;;;;;7.07;4.15;;;;;;;;;;8343655;28;20056;-93
2023/04/24 07:55:34;;;;;;;6.10;4.13;;;;;;;;;;8354298;28;20053;-94
2023/04/24 07:59:37;;;;;;;6.50;3.97;;;;;;;;;;8358675;28;20137;-94
2023/04/24 08:03:40;;;;;;;7.03;4.07;;;;;;;;;;8363379;28;20049;-91
2023/04/24 08:07:45;;;;;;;7.13;4.28;;;;;;;;;;8363811;28;20132;-94
2023/04/24 08:11:50;;;;;;;8.75;3.60;;;;;;;;;;8361479;28;20420;-91
2023/04/24 08:15:53;;;;;;;5.18;3.70;;;;;;;;;;8354569;28;20053;-94
2023/04/24 08:20:01;;;;;;;6.68;3.75;;;;;;;;;;8362850;28;20109;-93
2023/04/24 08:24:07;;;;;;;4.97;3.67;;;;;;;;;;8374660;28;20053;-94
2023/04/24 08:28:12;;;;;;;5.05;3.78;;;;;;;;;;8369381;28;20820;-95
2023/04/24 08:32:15;;;;;;;5.97;3.50;;;;;;;;;;8365999;28;20064;-91
2023/04/24 08:36:18;;;;;;;7.35;4.22;;;;;;;;;;8362702;28;20068;-93
2023/04/24 08:40:24;;;;;;;4.72;3.60;;;;;;;;;;8349184;28;20087;-92
2023/04/24 08:44:28;;;;;;;5.13;3.67;;;;;;;;;;8362458;28;20613;-93
2023/04/24 08:48:31;;;;;;;7.30;3.60;;;;;;;;;;8347547;28;20045;-92
2023/04/24 08:52:34;;;;;;;6.05;3.88;;;;;;;;;;8368722;28;20563;-94
2023/04/24 08:56:40;;;;;;;10.13;5.20;;;;;;;;;;8368562;28;20053;-92
2023/04/24 09:00:46;;;;;;;7.55;3.53;;;;;;;;;;8368729;28;20137;-92
2023/04/24 09:04:50;;;;;;;6.57;3.70;;;;;;;;;;8368159;28;20496;-93
2023/04/24 09:08:57;;;;;;;7.32;4.00;;;;;;;;;;8367697;28;20057;-92
2023/04/24 09:13:01;;;;;;;19.15;14.50;;;;;;;;;;8367685;28;20071;-92
2023/04/24 09:17:07;;;;;;;5.88;4.30;;;;;;;;;;8367078;28;20057;-92
2023/04/24 09:21:11;;;;;;;5.20;3.58;;;;;;;;;;8367307;28;20566;-92
2023/04/24 09:25:14;;;;;;;14.35;7.03;;;;;;;;;;8367123;28;20255;-93
2023/04/24 09:29:17;;;;;;;5.15;3.50;;;;;;;;;;8367357;28;20049;-93
2023/04/24 09:33:22;;;;;;;9.88;3.80;;;;;;;;;;8367236;28;20069;-92
2023/04/24 09:37:31;;;;;;;4.97;3.72;;;;;;;;;;8367206;28;20088;-91
2023/04/24 09:41:34;;;;;;;8.32;3.40;;;;;;;;;;8366668;28;20055;-90
2023/04/24 09:45:38;;;;;;;6.68;4.15;;;;;;;;;;8367188;28;20579;-92
2023/04/24 09:49:43;;;;;;;11.73;3.97;;;;;;;;;;8366539;28;20056;-92
2023/04/24 09:53:47;;;;;;;7.22;4.18;;;;;;;;;;8353196;28;20063;-92
2023/04/24 09:57:52;;;;;;;8.45;4.40;;;;;;;;;;8366240;28;20139;-93
2023/04/24 10:01:57;;;;;;;9.25;4.07;;;;;;;;;;8365599;28;20053;-94
2023/04/24 10:06:02;;;;;;;7.88;4.45;;;;;;;;;;8366184;28;20132;-94
2023/04/24 10:10:07;;;;;;;5.32;3.22;;;;;;;;;;8349152;28;20139;-93
2023/04/24 10:14:12;;;;;;;5.43;3.78;;;;;;;;;;8365734;28;20057;-92
2023/04/24 10:18:16;;;;;;;5.03;3.75;;;;;;;;;;8365550;28;20110;-92
2023/04/24 10:22:22;;;;;;;5.10;3.40;;;;;;;;;;8366572;28;20080;-92
2023/04/24 10:26:25;;;;;;;8.88;3.00;;;;;;;;;;8365979;28;20472;-93
2023/04/24 10:30:30;;;;;;;9.80;3.38;;;;;;;;;;8366495;28;20060;-93
2023/04/24 10:34:33;;;;;;;5.55;3.60;;;;;;;;;;8356992;28;20056;-92
2023/04/24 10:38:40;;;;;;;7.57;3.67;;;;;;;;;;8364594;28;20119;-91
2023/04/24 10:42:43;;;;;;;4.95;3.53;;;;;;;;;;8366783;28;20084;-92
2023/04/24 10:46:48;;;;;;;6.00;3.53;;;;;;;;;;8349733;28;20040;-93
2023/04/24 10:50:53;;;;;;;6.75;3.40;;;;;;;;;;8367405;28;20255;-92
2023/04/24 10:55:03;;;;;;;5.05;3.20;;;;;;;;;;8330056;28;20053;-93
2023/04/24 10:59:11;;;;;;;19.38;7.43;;;;;;;;;;8363531;28;20048;-92
2023/04/24 11:03:29;;;;;;;30.88;10.98;;;;;;;;;;8365450;28;20085;-93
2023/04/24 11:08:10;;;;;;;7.35;3.80;;;;;;;;;;8362815;28;20555;-92
2023/04/24 11:12:15;;;;;;;21.83;12.60;;;;;;;;;;8361298;28;20061;-91
2023/04/24 11:16:22;;;;;;;6.28;3.72;;;;;;;;;;8364929;28;20075;-90
2023/04/24 11:20:26;;;;;;;10.60;5.15;;;;;;;;;;8366875;28;20057;-91
2023/04/24 11:24:33;;;;;;;11.02;4.25;;;;;;;;;;8365561;28;20061;-93
2023/04/24 11:28:38;;;;;;;9.52;5.82;;;;;;;;;;8349035;28;20050;-92
2023/04/24 11:32:42;;;;;;;6.95;3.13;;;;;;;;;;8355842;28;20060;-92
2023/04/24 11:36:46;;;;;;;7.25;3.78;;;;;;;;;;8368670;28;20507;-93
2023/04/24 11:40:50;;;;;;;7.28;3.45;;;;;;;;;;8360983;28;20084;-93
2023/04/24 11:44:56;;;;;;;5.20;3.00;;;;;;;;;;8372140;28;20053;-93
2023/04/24 11:49:00;;;;;;;15.00;6.32;;;;;;;;;;8362530;28;20053;-93
2023/04/24 11:53:05;;;;;;;7.50;4.45;;;;;;;;;;8361373;28;20131;-92
2023/04/24 11:57:08;;;;;;;4.93;3.78;;;;;;;;;;8371565;28;20053;-92
2023/04/24 12:01:13;;;;;;;15.88;8.02;;;;;;;;;;8365491;28;20063;-92
2023/04/24 12:05:21;;;;;;;23.58;6.95;;;;;;;;;;8355678;28;20458;-92
2023/04/24 12:09:25;;;;;;;16.65;7.53;;;;;;;;;;8368530;28;20078;-92
2023/04/24 12:13:28;;;;;;;10.63;4.97;;;;;;;;;;8365605;28;20064;-93
2023/04/24 12:17:34;;;;;;;8.10;4.40;;;;;;;;;;8366235;28;20061;-93
2023/04/24 12:21:38;;;;;;;5.38;3.65;;;;;;;;;;8365128;28;20084;-94
2023/04/24 12:25:41;;;;;;;10.50;4.30;;;;;;;;;;8361804;28;20056;-91
2023/04/24 12:29:54;;;;;;;9.10;4.70;;;;;;;;;;8359381;28;20416;-92
2023/04/24 12:33:58;;;;;;;6.80;3.63;;;;;;;;;;8359122;28;20068;-93
2023/04/24 12:38:07;;;;;;;9.38;4.72;;;;;;;;;;8355950;28;20403;-93
2023/04/24 12:42:10;;;;;;;7.50;4.22;;;;;;;;;;8359096;28;20225;-92
2023/04/24 12:46:14;;;;;;;8.55;3.30;;;;;;;;;;8372489;28;20045;-92
2023/04/24 12:50:19;;;;;;;8.45;3.95;;;;;;;;;;8367070;28;20489;-94
2023/04/24 12:54:22;;;;;;;17.15;6.15;;;;;;;;;;8368016;28;20056;-94
2023/04/24 12:58:25;;;;;;;11.02;4.15;;;;;;;;;;8373056;28;20053;-93
2023/04/24 13:02:31;;;;;;;6.93;3.40;;;;;;;;;;8373707;28;20048;-93
2023/04/24 13:06:36;;;;;;;6.40;3.50;;;;;;;;;;8378578;28;20061;-93
2023/04/24 13:10:40;;;;;;;8.30;3.38;;;;;;;;;;8381140;28;20075;-93
2023/04/24 13:14:44;;;;;;;7.30;3.72;;;;;;;;;;8366835;28;20086;-94
2023/04/24 13:18:47;;;;;;;6.03;3.45;;;;;;;;;;8378315;28;20069;-91
2023/04/24 13:22:53;;;;;;;34.83;13.07;;;;;;;;;;8376114;28;20139;-91
2023/04/24 13:26:57;;;;;;;8.73;4.10;;;;;;;;;;8358368;28;20045;-91
2023/04/24 13:31:00;;;;;;;10.10;3.83;;;;;;;;;;8372960;28;20053;-93
2023/04/24 13:35:03;;;;;;;27.83;10.02;;;;;;;;;;8368613;28;20148;-92
2023/04/24 13:39:08;;;;;;;7.82;3.10;;;;;;;;;;8371351;28;20073;-93
2023/04/24 13:43:11;;;;;;;8.20;5.00;;;;;;;;;;8373479;28;20056;-94
2023/04/24 13:47:15;;;;;;;14.13;5.97;;;;;;;;;;8361011;28;20060;-92
2023/04/24 13:51:19;;;;;;;5.65;3.28;;;;;;;;;;8373560;28;20087;-93
2023/04/24 13:55:26;;;;;;;5.28;3.17;;;;;;;;;;8357682;28;20052;-95
2023/04/24 13:59:49;;;;;;;6.95;4.50;;;;;;;;;;8359322;28;20045;-94
2023/04/24 14:03:52;;;;;;;11.35;9.38;;;;;;;;;;8374168;28;20124;-93
2023/04/24 14:07:55;;;;;;;9.30;5.18;;;;;;;;;;8340369;28;20083;-92
2023/04/24 14:12:00;;;;;;;6.05;3.45;;;;;;;;;;8380217;28;20140;-96
2023/04/24 14:16:04;;;;;;;7.47;3.20;;;;;;;;;;8365883;28;20079;-94
2023/04/24 14:20:09;;;;;;;6.20;3.55;;;;;;;;;;8375117;28;20057;-94
2023/04/24 14:24:12;;;;;;;6.25;3.45;;;;;;;;;;8373572;28;20570;-92
2023/04/24 14:28:18;;;;;;;6.45;3.72;;;;;;;;;;8374230;28;20067;-91
2023/04/24 14:32:21;;;;;;;8.10;3.83;;;;;;;;;;8375969;28;20150;-94
2023/04/24 14:36:25;;;;;;;5.15;3.55;;;;;;;;;;8371686;28;20057;-94
2023/04/24 14:40:29;;;;;;;5.47;3.70;;;;;;;;;;8358994;28;20084;-95
2023/04/24 14:44:33;;;;;;;11.80;4.70;;;;;;;;;;8372601;28;20160;-93
2023/04/24 14:48:36;;;;;;;5.55;3.50;;;;;;;;;;8371246;28;20052;-94
2023/04/24 14:52:40;;;;;;;7.75;4.13;;;;;;;;;;8362195;28;20068;-92
2023/04/24 14:56:44;;;;;;;5.45;3.63;;;;;;;;;;8377878;28;20076;-93
2023/04/24 15:00:51;;;;;;;5.57;3.90;;;;;;;;;;8357117;28;20053;-94
2023/04/24 15:04:56;;;;;;;11.68;6.35;;;;;;;;;;8379942;28;20049;-93
2023/04/24 15:08:58;;;;;;;6.28;3.53;;;;;;;;;;8374785;28;20044;-93
2023/04/24 15:13:02;;;;;;;7.47;4.20;;;;;;;;;;8372774;28;20135;-93
2023/04/24 15:17:07;;;;;;;5.70;3.55;;;;;;;;;;8373560;28;20049;-93
2023/04/24 15:21:12;;;;;;;6.32;3.67;;;;;;;;;;8370904;28;20056;-91
2023/04/24 15:25:16;;;;;;;6.97;3.72;;;;;;;;;;8370553;28;20073;-91
2023/04/24 15:29:19;;;;;;;8.18;3.80;;;;;;;;;;8357151;28;20052;-94
2023/04/24 15:33:26;;;;;;;4.75;3.65;;;;;;;;;;8357626;28;20057;-94
2023/04/24 15:37:29;;;;;;;4.95;3.70;;;;;;;;;;8359980;28;20076;-92
2023/04/24 15:41:33;;;;;;;6.57;3.72;;;;;;;;;;8370725;28;20150;-94
2023/04/24 15:45:38;;;;;;;7.00;4.15;;;;;;;;;;8360361;28;20053;-95
2023/04/24 15:49:53;;;;;;;6.22;4.35;;;;;;;;;;8368003;28;20057;-94
2023/04/24 15:53:59;;;;;;;5.82;4.15;;;;;;;;;;8340280;28;20412;-91
2023/04/24 15:58:03;;;;;;;7.20;4.75;;;;;;;;;;8369468;28;20492;-94
2023/04/24 16:02:07;;;;;;;6.88;4.38;;;;;;;;;;8371241;28;20052;-94
2023/04/24 16:06:14;;;;;;;7.85;4.30;;;;;;;;;;8354128;28;20056;-91
2023/04/24 16:10:19;;;;;;;7.00;4.60;;;;;;;;;;8369423;28;20059;-95
2023/04/24 16:18:43;;;;;;;7.32;3.80;;;;;;;;;;8373022;28;20461;-92
2023/04/24 16:23:02;;;;;;;6.90;4.32;;;;;;;;;;8375651;28;20053;-93
2023/04/24 16:27:18;;;;;;;7.40;4.85;;;;;;;;;;8374776;28;20068;-94
2023/04/24 16:31:21;;;;;;;11.77;5.20;;;;;;;;;;8359755;28;20049;-94
2023/04/24 16:35:32;;;;;;;12.65;5.22;;;;;;;;;;8370617;28;20674;-94
2023/04/24 16:39:37;;;;;;;7.25;4.60;;;;;;;;;;8340101;28;20053;-93
2023/04/24 16:43:41;;;;;;;6.40;4.72;;;;;;;;;;8351407;28;20057;-92
2023/04/24 16:48:12;;;;;;;9.60;5.50;;;;;;;;;;8365294;28;20053;-94
2023/04/24 16:52:16;;;;;;;10.32;5.40;;;;;;;;;;8341181;28;20416;-92
2023/04/24 16:56:30;;;;;;;10.30;5.75;;;;;;;;;;8372536;28;20057;-94
2023/04/24 17:00:47;;;;;;;9.15;5.45;;;;;;;;;;8356536;28;20063;-94
2023/04/24 17:05:10;;;;;;;7.78;5.28;;;;;;;;;;8344001;28;20108;-93
2023/04/24 17:09:16;;;;;;;8.32;5.28;;;;;;;;;;8365217;28;20118;-94
2023/04/24 17:17:53;;;;;;;9.25;5.57;;;;;;;;;;8303401;28;20085;-95
2023/04/24 17:22:24;;;;;;;8.68;5.13;;;;;;;;;;8313719;28;20054;-94
2023/04/24 17:26:35;;;;;;;10.00;6.57;;;;;;;;;;8233135;28;20059;-95
2023/04/24 17:30:44;;;;;;;12.50;7.10;;;;;;;;;;8229717;28;20145;-94
2023/04/24 17:34:49;;;;;;;13.07;7.75;;;;;;;;;;8246494;28;20050;-94
2023/04/24 17:43:27;;;;;;;10.30;6.68;;;;;;;;;;8197927;28;20079;-94
2023/04/24 17:47:35;;;;;;;12.20;7.18;;;;;;;;;;8202391;29;20063;-93
2023/04/24 17:51:41;;;;;;;11.65;7.97;;;;;;;;;;8287828;28;20061;-94
2023/04/24 17:55:47;;;;;;;13.60;8.27;;;;;;;;;;8272680;28;20081;-92
2023/04/24 17:59:52;;;;;;;17.45;12.75;;;;;;;;;;8309030;28;20414;-93
2023/04/24 18:04:07;;;;;;;9.82;6.75;;;;;;;;;;8312278;28;20145;-94
2023/04/24 18:08:19;;;;;;;11.63;7.57;;;;;;;;;;8314088;28;20065;-94
2023/04/24 18:12:32;;;;;;;14.55;9.48;;;;;;;;;;8316762;28;20060;-95
2023/04/24 18:16:38;;;;;;;12.80;7.32;;;;;;;;;;8385121;28;20053;-94
2023/04/24 18:20:48;;;;;;;14.10;9.20;;;;;;;;;;8331244;28;20057;-93
2023/04/24 18:24:56;;;;;;;20.30;9.07;;;;;;;;;;8378162;28;20056;-94
2023/04/24 18:29:07;;;;;;;10.10;6.88;;;;;;;;;;8365951;28;20052;-94
2023/04/24 18:33:18;;;;;;;;;;;;;;;;;;8349496;28;20068;-94
2023/04/24 18:37:27;;;;;;;44.28;23.40;;;;;;;;;;8361626;28;19920;-94
2023/04/24 18:41:38;;;;;;;13.52;9.30;;;;;;;;;;8377712;28;20044;-95
2023/04/24 18:45:46;;;;;;;11.98;7.53;;;;;;;;;;8375945;28;20059;-95
2023/04/24 18:50:01;;;;;;;12.45;7.75;;;;;;;;;;8358078;28;20067;-93
2023/04/24 18:54:26;;;;;;;9.73;7.07;;;;;;;;;;8341241;28;20059;-95
2023/04/24 18:58:33;;;;;;;26.33;16.65;;;;;;;;;;8374527;28;20060;-93
2023/04/24 19:02:41;;;;;;;29.08;16.65;;;;;;;;;;8346677;28;20053;-94
2023/04/24 19:07:00;;;;;;;36.50;17.38;;;;;;;;;;8357857;28;20107;-94
2023/04/24 19:11:06;;;;;;;30.45;16.17;;;;;;;;;;8370309;28;20143;-93
2023/04/24 19:15:11;;;;;;;20.23;11.50;;;;;;;;;;8368062;28;20060;-94
2023/04/24 19:19:18;;;;;;;15.82;9.90;;;;;;;;;;8344174;28;20049;-93
2023/04/24 19:23:31;;;;;;;17.50;11.02;;;;;;;;;;8364993;28;20096;-95
2023/04/24 19:27:43;;;;;;;21.35;10.82;;;;;;;;;;8380838;28;20052;-94
2023/04/24 19:31:57;;;;;;;13.32;8.32;;;;;;;;;;8382309;28;20060;-96
2023/04/24 19:40:38;;;;;;;12.90;7.20;;;;;;;;;;8266520;28;20058;-91
2023/04/24 19:45:18;;;;;;;24.85;14.52;;;;;;;;;;8230623;28;20065;-92
2023/04/24 19:49:37;;;;;;;14.38;8.40;;;;;;;;;;8247852;28;20122;-93
2023/04/24 19:53:44;;;;;;;22.73;10.93;;;;;;;;;;8256268;28;20075;-95
2023/04/24 19:57:52;;;;;;;16.85;10.25;;;;;;;;;;8243735;28;20144;-94
2023/04/24 20:02:12;;;;;;;13.05;8.45;;;;;;;;;;8262374;28;20051;-95
2023/04/24 20:06:27;;;;;;;26.25;12.73;;;;;;;;;;8258615;28;20059;-93
2023/04/24 20:10:38;;;;;;;25.55;13.70;;;;;;;;;;8263796;28;20450;-93
2023/04/24 20:14:48;;;;;;;16.08;9.07;;;;;;;;;;8256238;28;20070;-94
2023/04/24 20:18:53;;;;;;;24.55;11.93;;;;;;;;;;8251304;28;20046;-94
2023/04/24 20:23:02;;;;;;;11.25;7.03;;;;;;;;;;8275502;28;20099;-93
2023/04/24 20:27:11;;;;;;;16.30;8.95;;;;;;;;;;8379532;28;20061;-93
2023/04/24 20:31:24;;;;;;;17.13;8.50;;;;;;;;;;8339804;28;20076;-96
2023/04/24 20:35:48;;;;;;;13.77;8.87;;;;;;;;;;8376668;28;20056;-96
2023/04/24 20:39:53;;;;;;;16.65;10.43;;;;;;;;;;8390484;28;20295;-96
2023/04/24 20:43:58;;;;;;;16.42;10.25;;;;;;;;;;8394416;28;20041;-93
2023/04/24 20:48:02;;;;;;;16.67;10.40;;;;;;;;;;8377056;28;20045;-94
2023/04/24 20:52:35;;;;;;;53.85;21.88;;;;;;;;;;8398094;28;20132;-93
2023/04/24 21:02:01;;;;;;;71.00;28.13;;;;;;;;;;8262346;28;20526;-96
2023/04/24 21:06:05;;;;;;;19.77;10.27;;;;;;;;;;8239650;28;20057;-96
2023/04/24 21:10:15;;;;;;;13.32;8.52;;;;;;;;;;8252061;28;20540;-95
2023/04/24 21:14:21;;;;;;;13.77;8.85;;;;;;;;;;8234043;28;20078;-96
2023/04/24 21:18:26;;;;;;;14.48;9.50;;;;;;;;;;8246477;28;20137;-96
2023/04/24 21:22:29;;;;;;;14.60;9.25;;;;;;;;;;8245169;28;20131;-96
2023/04/24 21:26:32;;;;;;;16.02;9.75;;;;;;;;;;8248380;28;20059;-92
2023/04/24 21:30:41;;;;;;;29.10;17.88;;;;;;;;;;8248237;28;20066;-96
2023/04/24 21:34:44;;;;;;;26.05;14.00;;;;;;;;;;8243598;28;20147;-96
2023/04/24 21:38:50;;;;;;;40.38;16.40;;;;;;;;;;8244362;28;20070;-96
2023/04/24 21:42:53;;;;;;;41.67;16.30;;;;;;;;;;8243388;28;20507;-96
2023/04/24 21:46:59;;;;;;;29.67;15.23;;;;;;;;;;8246694;28;20470;-95
2023/04/24 21:51:05;;;;;;;23.10;11.85;;;;;;;;;;8244080;28;20149;-96
2023/04/24 21:55:10;;;;;;;21.88;12.15;;;;;;;;;;8245925;28;20101;-94
2023/04/24 21:59:14;;;;;;;25.25;12.98;;;;;;;;;;8245367;28;20471;-96
2023/04/24 22:03:18;;;;;;;23.80;13.02;;;;;;;;;;8219670;28;20062;-96
2023/04/24 22:07:24;;;;;;;24.67;13.38;;;;;;;;;;8242925;28;20059;-96
2023/04/24 22:11:29;;;;;;;29.40;17.42;;;;;;;;;;8234638;28;20055;-94
2023/04/24 22:15:34;;;;;;;22.30;15.00;;;;;;;;;;8261839;28;20056;-96
2023/04/24 22:19:41;;;;;;;24.17;16.90;;;;;;;;;;8358748;28;20061;-93
2023/04/24 22:23:47;;;;;;;16.00;10.80;;;;;;;;;;8368332;28;20110;-96
2023/04/24 22:27:52;;;;;;;17.48;10.93;;;;;;;;;;8361553;28;20111;-96
2023/04/24 22:31:56;;;;;;;15.35;10.98;;;;;;;;;;8378067;28;20057;-92
2023/04/24 22:36:01;;;;;;;15.70;10.20;;;;;;;;;;8359842;28;20045;-96
2023/04/24 22:40:07;;;;;;;17.70;11.43;;;;;;;;;;8379606;28;20176;-95
2023/04/24 22:44:11;;;;;;;22.42;12.80;;;;;;;;;;8362475;28;20135;-94
2023/04/24 22:48:17;;;;;;;17.55;10.77;;;;;;;;;;8376387;28;20056;-94
2023/04/24 22:52:22;;;;;;;17.35;10.75;;;;;;;;;;8362093;28;20573;-95
2023/04/24 22:56:27;;;;;;;16.70;11.27;;;;;;;;;;8374185;28;20061;-95
2023/04/24 23:00:30;;;;;;;18.90;11.90;;;;;;;;;;8373670;28;20064;-93
2023/04/24 23:04:34;;;;;;;18.35;12.77;;;;;;;;;;8373902;28;20099;-94
2023/04/24 23:08:38;;;;;;;27.45;14.75;;;;;;;;;;8371409;28;20049;-95
2023/04/24 23:12:45;;;;;;;23.55;13.48;;;;;;;;;;8358209;28;20081;-93
2023/04/24 23:16:48;;;;;;;22.00;12.45;;;;;;;;;;8372499;28;20469;-95
2023/04/24 23:20:52;;;;;;;17.08;11.80;;;;;;;;;;8372714;28;20076;-96
2023/04/24 23:24:56;;;;;;;17.38;11.85;;;;;;;;;;8357015;28;20135;-96
2023/04/24 23:29:02;;;;;;;20.38;13.10;;;;;;;;;;8364426;28;20084;-95
2023/04/24 23:33:08;;;;;;;21.20;13.65;;;;;;;;;;8337954;28;20652;-93
2023/04/24 23:37:11;;;;;;;21.95;12.98;;;;;;;;;;8370774;28;20105;-93
2023/04/24 23:41:17;;;;;;;28.90;14.73;;;;;;;;;;8370121;28;20056;-93
2023/04/24 23:45:20;;;;;;;24.05;14.93;;;;;;;;;;8361869;28;20057;-95
2023/04/24 23:49:23;;;;;;;25.15;14.18;;;;;;;;;;8350881;28;20651;-93
2023/04/24 23:53:27;;;;;;;23.98;14.00;;;;;;;;;;8360218;28;20108;-92
2023/04/24 23:57:31;;;;;;;24.02;14.10;;;;;;;;;;8355700;28;20096;-96
